sensor_id;sensor_type;location;lat;lon;timestamp;P1;durP1;ratioP1;P2;durP2;ratioP2
33190;SDS011;19554;42.652;23.364;2022-07-15T00:01:50;3.67;;;2.50;;
33190;SDS011;19554;42.652;23.364;2022-07-15T00:04:16;5.40;;;2.58;;
33190;SDS011;19554;42.652;23.364;2022-07-15T00:06:41;6.45;;;2.80;;
33190;SDS011;19554;42.652;23.364;2022-07-15T00:09:07;6.18;;;2.53;;
33190;SDS011;19554;42.652;23.364;2022-07-15T00:11:32;5.18;;;2.22;;
33190;SDS011;19554;42.652;23.364;2022-07-15T00:13:58;6.07;;;2.50;;
33190;SDS011;19554;42.652;23.364;2022-07-15T00:16:24;3.33;;;2.25;;
33190;SDS011;19554;42.652;23.364;2022-07-15T00:18:49;4.13;;;2.38;;
33190;SDS011;19554;42.652;23.364;2022-07-15T00:21:15;5.80;;;2.20;;
33190;SDS011;19554;42.652;23.364;2022-07-15T00:23:40;5.45;;;2.60;;
33190;SDS011;19554;42.652;23.364;2022-07-15T00:26:06;5.90;;;2.42;;
33190;SDS011;19554;42.652;23.364;2022-07-15T00:28:31;2.45;;;1.92;;
33190;SDS011;19554;42.652;23.364;2022-07-15T00:30:57;5.45;;;2.00;;
33190;SDS011;19554;42.652;23.364;2022-07-15T00:33:22;7.05;;;2.22;;
33190;SDS011;19554;42.652;23.364;2022-07-15T00:35:48;5.40;;;2.40;;
33190;SDS011;19554;42.652;23.364;2022-07-15T00:38:14;4.70;;;2.10;;
33190;SDS011;19554;42.652;23.364;2022-07-15T00:40:41;6.53;;;2.47;;
33190;SDS011;19554;42.652;23.364;2022-07-15T00:43:10;6.95;;;2.40;;
33190;SDS011;19554;42.652;23.364;2022-07-15T00:45:36;3.80;;;2.55;;
33190;SDS011;19554;42.652;23.364;2022-07-15T00:48:02;5.00;;;2.50;;
33190;SDS011;19554;42.652;23.364;2022-07-15T00:50:28;6.30;;;2.20;;
33190;SDS011;19554;42.652;23.364;2022-07-15T00:53:00;2.67;;;1.80;;
33190;SDS011;19554;42.652;23.364;2022-07-15T00:55:31;2.47;;;1.98;;
33190;SDS011;19554;42.652;23.364;2022-07-15T00:58:02;3.25;;;1.90;;
33190;SDS011;19554;42.652;23.364;2022-07-15T01:00:29;5.60;;;2.20;;
33190;SDS011;19554;42.652;23.364;2022-07-15T01:02:55;6.75;;;2.45;;
33190;SDS011;19554;42.652;23.364;2022-07-15T01:05:24;4.72;;;2.20;;
33190;SDS011;19554;42.652;23.364;2022-07-15T01:07:50;2.45;;;1.70;;
33190;SDS011;19554;42.652;23.364;2022-07-15T01:10:16;4.30;;;2.00;;
33190;SDS011;19554;42.652;23.364;2022-07-15T01:15:13;4.78;;;1.92;;
33190;SDS011;19554;42.652;23.364;2022-07-15T01:17:38;3.97;;;1.80;;
33190;SDS011;19554;42.652;23.364;2022-07-15T01:20:04;7.00;;;1.95;;
33190;SDS011;19554;42.652;23.364;2022-07-15T01:22:30;6.70;;;2.10;;
33190;SDS011;19554;42.652;23.364;2022-07-15T01:24:55;4.57;;;2.03;;
33190;SDS011;19554;42.652;23.364;2022-07-15T01:27:21;2.08;;;1.88;;
33190;SDS011;19554;42.652;23.364;2022-07-15T01:29:47;2.53;;;2.13;;
33190;SDS011;19554;42.652;23.364;2022-07-15T01:32:12;2.75;;;2.28;;
33190;SDS011;19554;42.652;23.364;2022-07-15T01:34:38;4.20;;;1.70;;
33190;SDS011;19554;42.652;23.364;2022-07-15T01:37:03;4.20;;;2.20;;
33190;SDS011;19554;42.652;23.364;2022-07-15T01:39:28;3.75;;;2.40;;
33190;SDS011;19554;42.652;23.364;2022-07-15T01:41:54;2.70;;;2.10;;
33190;SDS011;19554;42.652;23.364;2022-07-15T01:44:20;4.55;;;2.20;;
33190;SDS011;19554;42.652;23.364;2022-07-15T01:46:46;6.57;;;2.10;;
33190;SDS011;19554;42.652;23.364;2022-07-15T01:49:11;3.55;;;2.20;;
33190;SDS011;19554;42.652;23.364;2022-07-15T01:54:25;3.33;;;2.03;;
33190;SDS011;19554;42.652;23.364;2022-07-15T01:56:52;4.00;;;2.20;;
33190;SDS011;19554;42.652;23.364;2022-07-15T01:59:19;3.45;;;1.98;;
33190;SDS011;19554;42.652;23.364;2022-07-15T02:01:49;7.20;;;2.10;;
33190;SDS011;19554;42.652;23.364;2022-07-15T02:04:16;3.38;;;2.35;;
33190;SDS011;19554;42.652;23.364;2022-07-15T02:06:41;3.10;;;2.47;;
33190;SDS011;19554;42.652;23.364;2022-07-15T02:09:07;4.13;;;2.70;;
33190;SDS011;19554;42.652;23.364;2022-07-15T02:11:34;3.58;;;2.65;;
33190;SDS011;19554;42.652;23.364;2022-07-15T02:14:00;2.08;;;1.88;;
33190;SDS011;19554;42.652;23.364;2022-07-15T02:16:26;5.65;;;3.67;;
33190;SDS011;19554;42.652;23.364;2022-07-15T02:18:53;7.00;;;3.13;;
33190;SDS011;19554;42.652;23.364;2022-07-15T02:21:18;3.88;;;1.92;;
33190;SDS011;19554;42.652;23.364;2022-07-15T02:23:44;4.55;;;2.35;;
33190;SDS011;19554;42.652;23.364;2022-07-15T02:26:10;6.75;;;1.83;;
33190;SDS011;19554;42.652;23.364;2022-07-15T02:28:35;3.83;;;2.03;;
33190;SDS011;19554;42.652;23.364;2022-07-15T02:31:01;6.38;;;2.67;;
33190;SDS011;19554;42.652;23.364;2022-07-15T02:33:26;6.25;;;2.33;;
33190;SDS011;19554;42.652;23.364;2022-07-15T02:35:52;4.07;;;2.05;;
33190;SDS011;19554;42.652;23.364;2022-07-15T02:38:17;3.85;;;2.38;;
33190;SDS011;19554;42.652;23.364;2022-07-15T02:40:43;2.72;;;2.08;;
33190;SDS011;19554;42.652;23.364;2022-07-15T02:43:09;8.75;;;1.90;;
33190;SDS011;19554;42.652;23.364;2022-07-15T02:45:35;7.65;;;2.03;;
33190;SDS011;19554;42.652;23.364;2022-07-15T02:48:01;4.05;;;1.85;;
33190;SDS011;19554;42.652;23.364;2022-07-15T02:50:27;5.40;;;2.55;;
33190;SDS011;19554;42.652;23.364;2022-07-15T02:52:53;3.92;;;2.00;;
33190;SDS011;19554;42.652;23.364;2022-07-15T02:55:19;7.55;;;2.40;;
33190;SDS011;19554;42.652;23.364;2022-07-15T02:57:44;3.70;;;2.03;;
33190;SDS011;19554;42.652;23.364;2022-07-15T03:00:11;11.68;;;6.40;;
33190;SDS011;19554;42.652;23.364;2022-07-15T03:02:39;6.30;;;2.28;;
33190;SDS011;19554;42.652;23.364;2022-07-15T03:05:06;6.10;;;2.00;;
33190;SDS011;19554;42.652;23.364;2022-07-15T03:07:32;5.63;;;2.60;;
33190;SDS011;19554;42.652;23.364;2022-07-15T03:09:58;7.47;;;2.22;;
33190;SDS011;19554;42.652;23.364;2022-07-15T03:12:23;10.05;;;2.30;;
33190;SDS011;19554;42.652;23.364;2022-07-15T03:14:49;5.93;;;2.10;;
33190;SDS011;19554;42.652;23.364;2022-07-15T03:17:14;5.80;;;2.05;;
33190;SDS011;19554;42.652;23.364;2022-07-15T03:19:40;4.75;;;2.08;;
33190;SDS011;19554;42.652;23.364;2022-07-15T03:22:06;3.97;;;1.73;;
33190;SDS011;19554;42.652;23.364;2022-07-15T03:24:31;12.90;;;2.20;;
33190;SDS011;19554;42.652;23.364;2022-07-15T03:26:57;6.05;;;2.20;;
33190;SDS011;19554;42.652;23.364;2022-07-15T03:29:23;4.05;;;1.75;;
33190;SDS011;19554;42.652;23.364;2022-07-15T03:31:49;4.78;;;2.40;;
33190;SDS011;19554;42.652;23.364;2022-07-15T03:34:14;4.78;;;2.00;;
33190;SDS011;19554;42.652;23.364;2022-07-15T03:36:40;2.30;;;1.95;;
33190;SDS011;19554;42.652;23.364;2022-07-15T03:39:06;3.17;;;2.15;;
33190;SDS011;19554;42.652;23.364;2022-07-15T03:41:32;8.18;;;2.80;;
33190;SDS011;19554;42.652;23.364;2022-07-15T03:43:59;4.65;;;2.05;;
33190;SDS011;19554;42.652;23.364;2022-07-15T03:46:25;5.68;;;2.00;;
33190;SDS011;19554;42.652;23.364;2022-07-15T03:48:51;10.18;;;2.25;;
33190;SDS011;19554;42.652;23.364;2022-07-15T03:51:17;11.45;;;2.75;;
33190;SDS011;19554;42.652;23.364;2022-07-15T03:53:43;2.33;;;1.83;;
33190;SDS011;19554;42.652;23.364;2022-07-15T03:56:08;4.25;;;2.10;;
33190;SDS011;19554;42.652;23.364;2022-07-15T03:58:34;3.53;;;2.20;;
33190;SDS011;19554;42.652;23.364;2022-07-15T04:01:00;3.72;;;2.00;;
33190;SDS011;19554;42.652;23.364;2022-07-15T04:03:25;7.93;;;2.60;;
33190;SDS011;19554;42.652;23.364;2022-07-15T04:05:51;3.50;;;1.92;;
33190;SDS011;19554;42.652;23.364;2022-07-15T04:08:16;6.47;;;2.13;;
33190;SDS011;19554;42.652;23.364;2022-07-15T04:10:42;6.03;;;2.25;;
33190;SDS011;19554;42.652;23.364;2022-07-15T04:13:07;3.03;;;1.95;;
33190;SDS011;19554;42.652;23.364;2022-07-15T04:15:33;9.45;;;2.10;;
33190;SDS011;19554;42.652;23.364;2022-07-15T04:17:58;6.93;;;2.10;;
33190;SDS011;19554;42.652;23.364;2022-07-15T04:20:25;3.50;;;1.95;;
33190;SDS011;19554;42.652;23.364;2022-07-15T04:22:51;9.15;;;2.72;;
33190;SDS011;19554;42.652;23.364;2022-07-15T04:25:17;3.35;;;2.22;;
33190;SDS011;19554;42.652;23.364;2022-07-15T04:27:44;6.30;;;2.63;;
33190;SDS011;19554;42.652;23.364;2022-07-15T04:30:11;11.07;;;2.97;;
33190;SDS011;19554;42.652;23.364;2022-07-15T04:32:37;6.43;;;2.75;;
33190;SDS011;19554;42.652;23.364;2022-07-15T04:35:03;8.15;;;2.65;;
33190;SDS011;19554;42.652;23.364;2022-07-15T04:37:29;8.55;;;2.63;;
33190;SDS011;19554;42.652;23.364;2022-07-15T04:39:55;8.07;;;2.38;;
33190;SDS011;19554;42.652;23.364;2022-07-15T04:42:21;12.43;;;3.47;;
33190;SDS011;19554;42.652;23.364;2022-07-15T04:44:47;12.15;;;2.70;;
33190;SDS011;19554;42.652;23.364;2022-07-15T04:47:13;12.57;;;3.17;;
33190;SDS011;19554;42.652;23.364;2022-07-15T04:49:39;23.80;;;3.90;;
33190;SDS011;19554;42.652;23.364;2022-07-15T04:52:23;11.07;;;3.08;;
33190;SDS011;19554;42.652;23.364;2022-07-15T04:54:49;18.67;;;3.60;;
33190;SDS011;19554;42.652;23.364;2022-07-15T04:57:18;19.92;;;3.65;;
33190;SDS011;19554;42.652;23.364;2022-07-15T04:59:43;12.38;;;3.63;;
33190;SDS011;19554;42.652;23.364;2022-07-15T05:02:09;14.35;;;3.70;;
33190;SDS011;19554;42.652;23.364;2022-07-15T05:04:34;13.15;;;3.65;;
33190;SDS011;19554;42.652;23.364;2022-07-15T05:07:00;10.85;;;3.55;;
33190;SDS011;19554;42.652;23.364;2022-07-15T05:09:26;11.57;;;4.00;;
33190;SDS011;19554;42.652;23.364;2022-07-15T05:11:51;12.15;;;3.85;;
33190;SDS011;19554;42.652;23.364;2022-07-15T05:14:17;8.98;;;3.70;;
33190;SDS011;19554;42.652;23.364;2022-07-15T05:16:42;10.73;;;4.10;;
33190;SDS011;19554;42.652;23.364;2022-07-15T05:19:08;22.75;;;3.90;;
33190;SDS011;19554;42.652;23.364;2022-07-15T05:21:33;10.43;;;3.83;;
33190;SDS011;19554;42.652;23.364;2022-07-15T05:23:59;13.73;;;4.47;;
33190;SDS011;19554;42.652;23.364;2022-07-15T05:26:24;11.85;;;4.05;;
33190;SDS011;19554;42.652;23.364;2022-07-15T05:28:50;10.27;;;3.67;;
33190;SDS011;19554;42.652;23.364;2022-07-15T05:31:15;15.98;;;4.13;;
33190;SDS011;19554;42.652;23.364;2022-07-15T05:33:41;15.43;;;4.38;;
33190;SDS011;19554;42.652;23.364;2022-07-15T05:36:11;13.07;;;4.13;;
33190;SDS011;19554;42.652;23.364;2022-07-15T05:38:38;9.67;;;3.43;;
33190;SDS011;19554;42.652;23.364;2022-07-15T05:41:03;8.77;;;3.30;;
33190;SDS011;19554;42.652;23.364;2022-07-15T05:43:29;7.95;;;2.92;;
33190;SDS011;19554;42.652;23.364;2022-07-15T05:45:54;7.82;;;2.75;;
33190;SDS011;19554;42.652;23.364;2022-07-15T05:48:19;5.82;;;3.22;;
33190;SDS011;19554;42.652;23.364;2022-07-15T05:50:45;7.88;;;3.25;;
33190;SDS011;19554;42.652;23.364;2022-07-15T05:53:10;14.55;;;3.20;;
33190;SDS011;19554;42.652;23.364;2022-07-15T05:55:36;9.05;;;3.58;;
33190;SDS011;19554;42.652;23.364;2022-07-15T05:58:04;6.10;;;3.10;;
33190;SDS011;19554;42.652;23.364;2022-07-15T06:00:31;6.18;;;3.38;;
33190;SDS011;19554;42.652;23.364;2022-07-15T06:02:57;3.33;;;2.08;;
33190;SDS011;19554;42.652;23.364;2022-07-15T06:05:22;4.65;;;2.13;;
33190;SDS011;19554;42.652;23.364;2022-07-15T06:07:47;7.45;;;2.85;;
33190;SDS011;19554;42.652;23.364;2022-07-15T06:10:13;6.15;;;2.70;;
33190;SDS011;19554;42.652;23.364;2022-07-15T06:12:38;2.97;;;2.05;;
33190;SDS011;19554;42.652;23.364;2022-07-15T06:15:04;5.38;;;2.92;;
33190;SDS011;19554;42.652;23.364;2022-07-15T06:17:31;3.20;;;2.03;;
33190;SDS011;19554;42.652;23.364;2022-07-15T06:19:56;3.15;;;2.08;;
33190;SDS011;19554;42.652;23.364;2022-07-15T06:22:22;3.58;;;2.35;;
33190;SDS011;19554;42.652;23.364;2022-07-15T06:24:47;5.97;;;2.10;;
33190;SDS011;19554;42.652;23.364;2022-07-15T06:27:12;5.65;;;1.63;;
33190;SDS011;19554;42.652;23.364;2022-07-15T06:29:38;2.95;;;2.08;;
33190;SDS011;19554;42.652;23.364;2022-07-15T06:32:03;5.25;;;2.17;;
33190;SDS011;19554;42.652;23.364;2022-07-15T06:34:29;2.33;;;2.13;;
33190;SDS011;19554;42.652;23.364;2022-07-15T06:36:54;2.42;;;1.80;;
33190;SDS011;19554;42.652;23.364;2022-07-15T06:39:20;3.20;;;2.20;;
33190;SDS011;19554;42.652;23.364;2022-07-15T06:41:45;3.45;;;1.80;;
33190;SDS011;19554;42.652;23.364;2022-07-15T06:44:11;3.45;;;2.00;;
33190;SDS011;19554;42.652;23.364;2022-07-15T06:46:37;13.25;;;2.20;;
33190;SDS011;19554;42.652;23.364;2022-07-15T06:49:03;4.55;;;2.40;;
33190;SDS011;19554;42.652;23.364;2022-07-15T06:51:28;43.83;;;4.45;;
33190;SDS011;19554;42.652;23.364;2022-07-15T06:53:54;12.05;;;2.88;;
33190;SDS011;19554;42.652;23.364;2022-07-15T06:56:19;6.43;;;2.20;;
33190;SDS011;19554;42.652;23.364;2022-07-15T06:58:44;11.02;;;2.78;;
33190;SDS011;19554;42.652;23.364;2022-07-15T07:01:10;8.38;;;3.00;;
33190;SDS011;19554;42.652;23.364;2022-07-15T07:03:36;4.72;;;2.63;;
33190;SDS011;19554;42.652;23.364;2022-07-15T07:06:01;4.97;;;2.83;;
33190;SDS011;19554;42.652;23.364;2022-07-15T07:08:27;5.75;;;2.60;;
33190;SDS011;19554;42.652;23.364;2022-07-15T07:10:52;6.65;;;2.78;;
33190;SDS011;19554;42.652;23.364;2022-07-15T07:13:18;5.30;;;2.65;;
33190;SDS011;19554;42.652;23.364;2022-07-15T07:15:44;6.63;;;2.97;;
33190;SDS011;19554;42.652;23.364;2022-07-15T07:18:09;9.18;;;3.42;;
33190;SDS011;19554;42.652;23.364;2022-07-15T07:20:36;8.82;;;2.85;;
33190;SDS011;19554;42.652;23.364;2022-07-15T07:23:02;8.98;;;3.13;;
33190;SDS011;19554;42.652;23.364;2022-07-15T07:25:28;10.05;;;3.33;;
33190;SDS011;19554;42.652;23.364;2022-07-15T07:27:53;7.90;;;3.30;;
33190;SDS011;19554;42.652;23.364;2022-07-15T07:30:19;11.77;;;4.20;;
33190;SDS011;19554;42.652;23.364;2022-07-15T07:32:44;13.15;;;4.25;;
33190;SDS011;19554;42.652;23.364;2022-07-15T07:35:09;17.00;;;4.60;;
33190;SDS011;19554;42.652;23.364;2022-07-15T07:37:35;16.13;;;5.95;;
33190;SDS011;19554;42.652;23.364;2022-07-15T07:40:03;18.02;;;4.90;;
33190;SDS011;19554;42.652;23.364;2022-07-15T07:42:33;13.52;;;4.07;;
33190;SDS011;19554;42.652;23.364;2022-07-15T07:44:59;17.10;;;5.20;;
33190;SDS011;19554;42.652;23.364;2022-07-15T07:47:26;23.42;;;4.38;;
33190;SDS011;19554;42.652;23.364;2022-07-15T07:49:51;18.00;;;4.80;;
33190;SDS011;19554;42.652;23.364;2022-07-15T07:52:17;9.27;;;4.38;;
33190;SDS011;19554;42.652;23.364;2022-07-15T07:54:42;15.13;;;6.25;;
33190;SDS011;19554;42.652;23.364;2022-07-15T07:57:09;12.20;;;6.28;;
33190;SDS011;19554;42.652;23.364;2022-07-15T07:59:35;12.80;;;5.95;;
33190;SDS011;19554;42.652;23.364;2022-07-15T08:02:01;13.77;;;6.18;;
33190;SDS011;19554;42.652;23.364;2022-07-15T08:04:29;15.48;;;6.05;;
33190;SDS011;19554;42.652;23.364;2022-07-15T08:06:54;15.00;;;6.45;;
33190;SDS011;19554;42.652;23.364;2022-07-15T08:09:20;14.98;;;5.60;;
33190;SDS011;19554;42.652;23.364;2022-07-15T08:11:45;12.95;;;5.60;;
33190;SDS011;19554;42.652;23.364;2022-07-15T08:14:11;14.52;;;5.78;;
33190;SDS011;19554;42.652;23.364;2022-07-15T08:16:36;13.50;;;5.15;;
33190;SDS011;19554;42.652;23.364;2022-07-15T08:19:07;13.68;;;5.65;;
33190;SDS011;19554;42.652;23.364;2022-07-15T08:21:32;14.52;;;5.65;;
33190;SDS011;19554;42.652;23.364;2022-07-15T08:23:58;15.50;;;5.35;;
33190;SDS011;19554;42.652;23.364;2022-07-15T08:26:23;14.93;;;5.25;;
33190;SDS011;19554;42.652;23.364;2022-07-15T08:28:52;14.48;;;4.90;;
33190;SDS011;19554;42.652;23.364;2022-07-15T08:31:18;14.00;;;4.97;;
33190;SDS011;19554;42.652;23.364;2022-07-15T08:33:44;12.90;;;4.82;;
33190;SDS011;19554;42.652;23.364;2022-07-15T08:36:10;10.27;;;3.90;;
33190;SDS011;19554;42.652;23.364;2022-07-15T08:38:36;13.18;;;4.25;;
33190;SDS011;19554;42.652;23.364;2022-07-15T08:41:02;9.63;;;4.90;;
33190;SDS011;19554;42.652;23.364;2022-07-15T08:43:28;10.90;;;5.05;;
33190;SDS011;19554;42.652;23.364;2022-07-15T08:45:54;20.30;;;5.28;;
33190;SDS011;19554;42.652;23.364;2022-07-15T08:48:21;15.35;;;5.10;;
33190;SDS011;19554;42.652;23.364;2022-07-15T08:50:56;12.32;;;5.28;;
33190;SDS011;19554;42.652;23.364;2022-07-15T08:53:24;13.57;;;5.35;;
33190;SDS011;19554;42.652;23.364;2022-07-15T08:55:52;10.88;;;5.05;;
33190;SDS011;19554;42.652;23.364;2022-07-15T08:58:17;14.50;;;4.82;;
33190;SDS011;19554;42.652;23.364;2022-07-15T09:00:43;10.10;;;4.45;;
33190;SDS011;19554;42.652;23.364;2022-07-15T09:03:09;11.60;;;4.50;;
33190;SDS011;19554;42.652;23.364;2022-07-15T09:05:34;7.95;;;3.95;;
33190;SDS011;19554;42.652;23.364;2022-07-15T09:08:05;13.15;;;4.38;;
33190;SDS011;19554;42.652;23.364;2022-07-15T09:16:00;5.25;;;2.97;;
33190;SDS011;19554;42.652;23.364;2022-07-15T09:18:34;11.93;;;3.78;;
33190;SDS011;19554;42.652;23.364;2022-07-15T09:23:44;10.87;;;3.27;;
33190;SDS011;19554;42.652;23.364;2022-07-15T09:26:27;8.48;;;3.55;;
33190;SDS011;19554;42.652;23.364;2022-07-15T09:28:54;6.07;;;3.38;;
33190;SDS011;19554;42.652;23.364;2022-07-15T09:31:31;5.63;;;3.17;;
33190;SDS011;19554;42.652;23.364;2022-07-15T09:34:17;6.80;;;3.15;;
33190;SDS011;19554;42.652;23.364;2022-07-15T09:36:46;8.48;;;2.50;;
33190;SDS011;19554;42.652;23.364;2022-07-15T09:39:18;5.47;;;1.88;;
33190;SDS011;19554;42.652;23.364;2022-07-15T09:41:44;7.22;;;2.15;;
33190;SDS011;19554;42.652;23.364;2022-07-15T09:44:12;3.25;;;2.58;;
33190;SDS011;19554;42.652;23.364;2022-07-15T09:49:08;6.95;;;2.50;;
33190;SDS011;19554;42.652;23.364;2022-07-15T09:54:16;9.13;;;2.13;;
33190;SDS011;19554;42.652;23.364;2022-07-15T09:56:44;4.82;;;2.22;;
33190;SDS011;19554;42.652;23.364;2022-07-15T09:59:10;6.95;;;2.60;;
33190;SDS011;19554;42.652;23.364;2022-07-15T10:01:36;3.40;;;2.08;;
33190;SDS011;19554;42.652;23.364;2022-07-15T10:04:02;5.95;;;2.83;;
33190;SDS011;19554;42.652;23.364;2022-07-15T10:06:32;5.22;;;2.40;;
33190;SDS011;19554;42.652;23.364;2022-07-15T10:09:00;9.68;;;1.75;;
33190;SDS011;19554;42.652;23.364;2022-07-15T10:11:27;5.00;;;1.90;;
33190;SDS011;19554;42.652;23.364;2022-07-15T10:19:46;4.50;;;1.80;;
33190;SDS011;19554;42.652;23.364;2022-07-15T10:27:46;5.40;;;1.88;;
33190;SDS011;19554;42.652;23.364;2022-07-15T10:30:20;4.18;;;2.25;;
33190;SDS011;19554;42.652;23.364;2022-07-15T10:35:36;6.53;;;2.30;;
33190;SDS011;19554;42.652;23.364;2022-07-15T10:40:58;7.63;;;1.70;;
33190;SDS011;19554;42.652;23.364;2022-07-15T10:48:46;4.93;;;1.95;;
33190;SDS011;19554;42.652;23.364;2022-07-15T10:54:37;2.45;;;1.80;;
33190;SDS011;19554;42.652;23.364;2022-07-15T10:56:56;6.20;;;2.13;;
33190;SDS011;19554;42.652;23.364;2022-07-15T10:59:22;6.72;;;1.90;;
33190;SDS011;19554;42.652;23.364;2022-07-15T11:04:26;4.60;;;2.00;;
33190;SDS011;19554;42.652;23.364;2022-07-15T11:14:54;2.78;;;1.98;;
33190;SDS011;19554;42.652;23.364;2022-07-15T11:19:57;3.47;;;1.90;;
33190;SDS011;19554;42.652;23.364;2022-07-15T11:22:25;2.47;;;1.40;;
33190;SDS011;19554;42.652;23.364;2022-07-15T11:24:53;6.22;;;1.95;;
33190;SDS011;19554;42.652;23.364;2022-07-15T11:27:20;2.40;;;1.40;;
33190;SDS011;19554;42.652;23.364;2022-07-15T11:29:48;2.20;;;2.00;;
33190;SDS011;19554;42.652;23.364;2022-07-15T11:32:16;4.50;;;1.95;;
33190;SDS011;19554;42.652;23.364;2022-07-15T11:34:43;6.00;;;2.08;;
33190;SDS011;19554;42.652;23.364;2022-07-15T11:37:11;3.92;;;2.60;;
33190;SDS011;19554;42.652;23.364;2022-07-15T11:39:37;4.70;;;2.55;;
33190;SDS011;19554;42.652;23.364;2022-07-15T11:42:04;7.47;;;4.35;;
33190;SDS011;19554;42.652;23.364;2022-07-15T11:44:48;4.25;;;2.65;;
33190;SDS011;19554;42.652;23.364;2022-07-15T11:47:15;5.80;;;5.20;;
33190;SDS011;19554;42.652;23.364;2022-07-15T11:49:41;5.25;;;3.08;;
33190;SDS011;19554;42.652;23.364;2022-07-15T11:52:09;2.55;;;2.33;;
33190;SDS011;19554;42.652;23.364;2022-07-15T11:54:46;6.47;;;2.58;;
33190;SDS011;19554;42.652;23.364;2022-07-15T11:57:13;5.15;;;2.42;;
33190;SDS011;19554;42.652;23.364;2022-07-15T11:59:38;6.00;;;2.30;;
33190;SDS011;19554;42.652;23.364;2022-07-15T12:02:08;5.55;;;3.85;;
33190;SDS011;19554;42.652;23.364;2022-07-15T12:04:36;3.90;;;2.75;;
33190;SDS011;19554;42.652;23.364;2022-07-15T12:07:02;7.53;;;2.42;;
33190;SDS011;19554;42.652;23.364;2022-07-15T12:09:44;5.28;;;2.40;;
33190;SDS011;19554;42.652;23.364;2022-07-15T12:12:11;3.17;;;2.30;;
33190;SDS011;19554;42.652;23.364;2022-07-15T12:14:37;3.58;;;2.40;;
33190;SDS011;19554;42.652;23.364;2022-07-15T12:17:03;7.60;;;2.80;;
33190;SDS011;19554;42.652;23.364;2022-07-15T12:19:29;5.70;;;2.53;;
33190;SDS011;19554;42.652;23.364;2022-07-15T12:21:57;10.70;;;2.55;;
33190;SDS011;19554;42.652;23.364;2022-07-15T12:27:06;4.75;;;2.50;;
33190;SDS011;19554;42.652;23.364;2022-07-15T12:29:33;4.07;;;2.55;;
33190;SDS011;19554;42.652;23.364;2022-07-15T12:32:00;4.97;;;2.90;;
33190;SDS011;19554;42.652;23.364;2022-07-15T12:37:12;4.15;;;2.50;;
33190;SDS011;19554;42.652;23.364;2022-07-15T12:39:58;7.05;;;2.40;;
33190;SDS011;19554;42.652;23.364;2022-07-15T12:42:41;6.22;;;2.88;;
33190;SDS011;19554;42.652;23.364;2022-07-15T12:45:11;4.13;;;2.42;;
33190;SDS011;19554;42.652;23.364;2022-07-15T12:53:17;8.45;;;2.78;;
33190;SDS011;19554;42.652;23.364;2022-07-15T12:55:48;8.38;;;2.55;;
33190;SDS011;19554;42.652;23.364;2022-07-15T12:58:16;10.30;;;3.03;;
33190;SDS011;19554;42.652;23.364;2022-07-15T13:00:47;9.68;;;3.53;;
33190;SDS011;19554;42.652;23.364;2022-07-15T13:03:14;9.75;;;2.78;;
33190;SDS011;19554;42.652;23.364;2022-07-15T13:05:48;9.18;;;3.85;;
33190;SDS011;19554;42.652;23.364;2022-07-15T13:08:16;8.27;;;3.40;;
33190;SDS011;19554;42.652;23.364;2022-07-15T13:10:47;4.60;;;3.17;;
33190;SDS011;19554;42.652;23.364;2022-07-15T13:13:17;8.25;;;3.45;;
33190;SDS011;19554;42.652;23.364;2022-07-15T13:15:44;4.72;;;3.15;;
33190;SDS011;19554;42.652;23.364;2022-07-15T13:18:12;4.15;;;3.50;;
33190;SDS011;19554;42.652;23.364;2022-07-15T13:20:38;7.05;;;2.95;;
33190;SDS011;19554;42.652;23.364;2022-07-15T13:23:04;5.93;;;2.70;;
33190;SDS011;19554;42.652;23.364;2022-07-15T13:25:30;4.63;;;2.80;;
33190;SDS011;19554;42.652;23.364;2022-07-15T13:27:56;5.35;;;3.08;;
33190;SDS011;19554;42.652;23.364;2022-07-15T13:30:23;6.80;;;3.00;;
33190;SDS011;19554;42.652;23.364;2022-07-15T13:32:49;7.88;;;3.22;;
33190;SDS011;19554;42.652;23.364;2022-07-15T13:35:14;8.60;;;3.10;;
33190;SDS011;19554;42.652;23.364;2022-07-15T13:37:40;8.85;;;3.67;;
33190;SDS011;19554;42.652;23.364;2022-07-15T13:40:06;7.75;;;3.20;;
33190;SDS011;19554;42.652;23.364;2022-07-15T13:42:33;8.45;;;3.63;;
33190;SDS011;19554;42.652;23.364;2022-07-15T13:44:59;7.55;;;3.58;;
33190;SDS011;19554;42.652;23.364;2022-07-15T13:47:25;6.85;;;3.80;;
33190;SDS011;19554;42.652;23.364;2022-07-15T13:49:51;3.65;;;2.78;;
33190;SDS011;19554;42.652;23.364;2022-07-15T13:52:40;3.35;;;2.03;;
33190;SDS011;19554;42.652;23.364;2022-07-15T13:55:10;3.13;;;2.50;;
33190;SDS011;19554;42.652;23.364;2022-07-15T13:57:36;3.17;;;2.30;;
33190;SDS011;19554;42.652;23.364;2022-07-15T14:00:03;6.57;;;2.67;;
33190;SDS011;19554;42.652;23.364;2022-07-15T14:02:30;5.65;;;2.60;;
33190;SDS011;19554;42.652;23.364;2022-07-15T14:04:55;5.57;;;2.63;;
33190;SDS011;19554;42.652;23.364;2022-07-15T14:07:20;12.50;;;3.92;;
33190;SDS011;19554;42.652;23.364;2022-07-15T14:09:46;5.18;;;2.63;;
33190;SDS011;19554;42.652;23.364;2022-07-15T14:12:11;4.05;;;2.70;;
33190;SDS011;19554;42.652;23.364;2022-07-15T14:14:37;6.88;;;2.55;;
33190;SDS011;19554;42.652;23.364;2022-07-15T14:17:02;12.25;;;3.13;;
33190;SDS011;19554;42.652;23.364;2022-07-15T14:19:27;9.60;;;2.90;;
33190;SDS011;19554;42.652;23.364;2022-07-15T14:21:53;5.80;;;2.22;;
33190;SDS011;19554;42.652;23.364;2022-07-15T14:24:18;8.73;;;2.88;;
33190;SDS011;19554;42.652;23.364;2022-07-15T14:26:44;3.95;;;2.40;;
33190;SDS011;19554;42.652;23.364;2022-07-15T14:29:09;4.47;;;2.53;;
33190;SDS011;19554;42.652;23.364;2022-07-15T14:31:35;3.58;;;2.13;;
33190;SDS011;19554;42.652;23.364;2022-07-15T14:34:00;10.48;;;2.53;;
33190;SDS011;19554;42.652;23.364;2022-07-15T14:36:26;3.20;;;2.33;;
33190;SDS011;19554;42.652;23.364;2022-07-15T14:38:51;6.05;;;2.05;;
33190;SDS011;19554;42.652;23.364;2022-07-15T14:41:16;4.13;;;2.75;;
33190;SDS011;19554;42.652;23.364;2022-07-15T14:43:42;5.45;;;2.67;;
33190;SDS011;19554;42.652;23.364;2022-07-15T14:46:07;5.13;;;2.60;;
33190;SDS011;19554;42.652;23.364;2022-07-15T14:48:33;2.95;;;2.50;;
33190;SDS011;19554;42.652;23.364;2022-07-15T14:50:58;6.10;;;2.40;;
33190;SDS011;19554;42.652;23.364;2022-07-15T14:53:24;4.72;;;2.65;;
33190;SDS011;19554;42.652;23.364;2022-07-15T14:55:50;3.80;;;2.47;;
33190;SDS011;19554;42.652;23.364;2022-07-15T14:58:15;8.75;;;2.80;;
33190;SDS011;19554;42.652;23.364;2022-07-15T15:00:44;12.27;;;2.67;;
33190;SDS011;19554;42.652;23.364;2022-07-15T15:03:10;3.60;;;2.28;;
33190;SDS011;19554;42.652;23.364;2022-07-15T15:05:35;7.22;;;2.60;;
33190;SDS011;19554;42.652;23.364;2022-07-15T15:08:01;4.78;;;2.53;;
33190;SDS011;19554;42.652;23.364;2022-07-15T15:10:27;3.95;;;2.72;;
33190;SDS011;19554;42.652;23.364;2022-07-15T15:12:52;11.00;;;2.75;;
33190;SDS011;19554;42.652;23.364;2022-07-15T15:15:18;5.50;;;2.80;;
33190;SDS011;19554;42.652;23.364;2022-07-15T15:17:43;5.50;;;3.75;;
33190;SDS011;19554;42.652;23.364;2022-07-15T15:20:09;10.00;;;4.20;;
33190;SDS011;19554;42.652;23.364;2022-07-15T15:22:35;6.80;;;3.58;;
33190;SDS011;19554;42.652;23.364;2022-07-15T15:25:02;6.93;;;3.05;;
33190;SDS011;19554;42.652;23.364;2022-07-15T15:27:29;7.88;;;2.95;;
33190;SDS011;19554;42.652;23.364;2022-07-15T15:29:54;9.13;;;3.00;;
33190;SDS011;19554;42.652;23.364;2022-07-15T15:32:20;4.75;;;2.50;;
33190;SDS011;19554;42.652;23.364;2022-07-15T15:34:45;7.30;;;3.13;;
33190;SDS011;19554;42.652;23.364;2022-07-15T15:37:11;9.82;;;3.53;;